sensor_id;sensor_type;location;lat;lon;timestamp;temperature;humidity
39777;DHT22;25453;48.162;14.510;2023-01-08T00:02:24;6.10;70.20
39777;DHT22;25453;48.162;14.510;2023-01-08T00:04:51;6.00;70.10
39777;DHT22;25453;48.162;14.510;2023-01-08T00:07:18;6.00;70.30
39777;DHT22;25453;48.162;14.510;2023-01-08T00:09:45;6.00;70.60
39777;DHT22;25453;48.162;14.510;2023-01-08T00:12:15;6.10;70.90
39777;DHT22;25453;48.162;14.510;2023-01-08T00:14:42;6.10;70.80
39777;DHT22;25453;48.162;14.510;2023-01-08T00:17:09;6.10;70.10
39777;DHT22;25453;48.162;14.510;2023-01-08T00:19:36;6.10;70.20
39777;DHT22;25453;48.162;14.510;2023-01-08T00:22:03;6.10;70.40
39777;DHT22;25453;48.162;14.510;2023-01-08T00:24:30;6.10;70.70
39777;DHT22;25453;48.162;14.510;2023-01-08T00:26:57;6.10;70.60
39777;DHT22;25453;48.162;14.510;2023-01-08T00:29:23;6.20;70.80
39777;DHT22;25453;48.162;14.510;2023-01-08T00:31:50;6.20;70.30
39777;DHT22;25453;48.162;14.510;2023-01-08T00:34:17;6.10;70.00
39777;DHT22;25453;48.162;14.510;2023-01-08T00:36:44;6.10;70.00
39777;DHT22;25453;48.162;14.510;2023-01-08T00:39:11;6.00;69.90
39777;DHT22;25453;48.162;14.510;2023-01-08T00:41:38;6.00;69.80
39777;DHT22;25453;48.162;14.510;2023-01-08T00:44:09;5.90;69.60
39777;DHT22;25453;48.162;14.510;2023-01-08T00:46:36;5.80;69.60
39777;DHT22;25453;48.162;14.510;2023-01-08T00:49:03;5.70;69.60
39777;DHT22;25453;48.162;14.510;2023-01-08T00:51:30;5.70;70.00
39777;DHT22;25453;48.162;14.510;2023-01-08T00:54:00;5.70;69.90
39777;DHT22;25453;48.162;14.510;2023-01-08T00:56:27;5.70;69.80
39777;DHT22;25453;48.162;14.510;2023-01-08T00:58:54;5.60;70.00
39777;DHT22;25453;48.162;14.510;2023-01-08T01:01:21;5.60;70.20
39777;DHT22;25453;48.162;14.510;2023-01-08T01:03:49;5.60;70.40
39777;DHT22;25453;48.162;14.510;2023-01-08T01:06:16;5.60;70.60
39777;DHT22;25453;48.162;14.510;2023-01-08T01:08:43;5.70;70.90
39777;DHT22;25453;48.162;14.510;2023-01-08T01:11:20;5.70;70.90
39777;DHT22;25453;48.162;14.510;2023-01-08T01:13:47;5.70;71.00
39777;DHT22;25453;48.162;14.510;2023-01-08T01:16:15;5.70;71.00
39777;DHT22;25453;48.162;14.510;2023-01-08T01:18:42;5.70;71.40
39777;DHT22;25453;48.162;14.510;2023-01-08T01:21:16;5.80;72.00
39777;DHT22;25453;48.162;14.510;2023-01-08T01:23:44;5.80;71.80
39777;DHT22;25453;48.162;14.510;2023-01-08T01:26:17;5.80;71.60
39777;DHT22;25453;48.162;14.510;2023-01-08T01:28:46;5.80;71.60
39777;DHT22;25453;48.162;14.510;2023-01-08T01:31:13;5.80;71.60
39777;DHT22;25453;48.162;14.510;2023-01-08T01:33:41;5.80;71.80
39777;DHT22;25453;48.162;14.510;2023-01-08T01:36:08;5.80;71.60
39777;DHT22;25453;48.162;14.510;2023-01-08T01:38:36;5.80;71.40
39777;DHT22;25453;48.162;14.510;2023-01-08T01:41:03;5.80;71.70
39777;DHT22;25453;48.162;14.510;2023-01-08T01:43:37;5.80;71.60
39777;DHT22;25453;48.162;14.510;2023-01-08T01:46:05;5.80;71.20
39777;DHT22;25453;48.162;14.510;2023-01-08T01:48:39;5.70;70.90
39777;DHT22;25453;48.162;14.510;2023-01-08T01:51:06;5.70;71.40
39777;DHT22;25453;48.162;14.510;2023-01-08T01:53:33;5.70;71.80
39777;DHT22;25453;48.162;14.510;2023-01-08T01:56:01;5.70;71.40
39777;DHT22;25453;48.162;14.510;2023-01-08T01:58:29;5.70;71.10
39777;DHT22;25453;48.162;14.510;2023-01-08T02:00:57;5.70;71.20
39777;DHT22;25453;48.162;14.510;2023-01-08T02:03:28;5.70;71.20
39777;DHT22;25453;48.162;14.510;2023-01-08T02:06:01;5.70;71.50
39777;DHT22;25453;48.162;14.510;2023-01-08T02:10:57;5.70;71.50
39777;DHT22;25453;48.162;14.510;2023-01-08T02:13:31;5.70;71.80
39777;DHT22;25453;48.162;14.510;2023-01-08T02:16:04;5.70;71.90
39777;DHT22;25453;48.162;14.510;2023-01-08T02:18:40;5.80;72.00
39777;DHT22;25453;48.162;14.510;2023-01-08T02:21:12;5.80;72.10
39777;DHT22;25453;48.162;14.510;2023-01-08T02:28:54;5.90;72.70
39777;DHT22;25453;48.162;14.510;2023-01-08T02:31:22;6.00;73.00
39777;DHT22;25453;48.162;14.510;2023-01-08T02:33:49;6.10;73.10
39777;DHT22;25453;48.162;14.510;2023-01-08T02:38:56;6.10;72.50
39777;DHT22;25453;48.162;14.510;2023-01-08T02:41:40;6.10;72.50
39777;DHT22;25453;48.162;14.510;2023-01-08T02:44:09;6.00;72.50
39777;DHT22;25453;48.162;14.510;2023-01-08T02:46:38;6.00;72.60
39777;DHT22;25453;48.162;14.510;2023-01-08T02:49:08;6.00;72.60
39777;DHT22;25453;48.162;14.510;2023-01-08T02:51:41;6.00;72.80
39777;DHT22;25453;48.162;14.510;2023-01-08T02:54:10;6.00;73.10
39777;DHT22;25453;48.162;14.510;2023-01-08T02:56:40;6.00;73.30
39777;DHT22;25453;48.162;14.510;2023-01-08T02:59:08;6.00;73.40
39777;DHT22;25453;48.162;14.510;2023-01-08T03:01:36;6.00;73.40
39777;DHT22;25453;48.162;14.510;2023-01-08T03:04:06;6.00;73.60
39777;DHT22;25453;48.162;14.510;2023-01-08T03:06:35;6.00;73.70
39777;DHT22;25453;48.162;14.510;2023-01-08T03:09:03;6.00;73.50
39777;DHT22;25453;48.162;14.510;2023-01-08T03:11:33;5.90;73.60
39777;DHT22;25453;48.162;14.510;2023-01-08T03:21:35;5.70;74.30
39777;DHT22;25453;48.162;14.510;2023-01-08T03:24:03;5.70;74.50
39777;DHT22;25453;48.162;14.510;2023-01-08T03:26:30;5.70;74.90
39777;DHT22;25453;48.162;14.510;2023-01-08T03:28:58;5.70;75.00
39777;DHT22;25453;48.162;14.510;2023-01-08T03:31:26;5.70;74.70
39777;DHT22;25453;48.162;14.510;2023-01-08T03:33:53;5.70;74.80
39777;DHT22;25453;48.162;14.510;2023-01-08T03:36:23;5.70;74.80
39777;DHT22;25453;48.162;14.510;2023-01-08T03:39:00;5.70;75.10
39777;DHT22;25453;48.162;14.510;2023-01-08T03:41:30;5.70;75.10
39777;DHT22;25453;48.162;14.510;2023-01-08T03:43:58;5.70;75.00
39777;DHT22;25453;48.162;14.510;2023-01-08T03:46:27;5.70;75.10
39777;DHT22;25453;48.162;14.510;2023-01-08T03:48:56;5.80;75.20
39777;DHT22;25453;48.162;14.510;2023-01-08T03:51:24;5.80;75.20
39777;DHT22;25453;48.162;14.510;2023-01-08T03:53:52;5.80;75.10
39777;DHT22;25453;48.162;14.510;2023-01-08T03:56:20;5.80;75.20
39777;DHT22;25453;48.162;14.510;2023-01-08T03:58:47;5.90;75.20
39777;DHT22;25453;48.162;14.510;2023-01-08T04:01:14;5.90;75.20
39777;DHT22;25453;48.162;14.510;2023-01-08T04:03:41;5.90;75.30
39777;DHT22;25453;48.162;14.510;2023-01-08T04:06:08;6.00;75.40
39777;DHT22;25453;48.162;14.510;2023-01-08T04:08:34;6.00;75.50
39777;DHT22;25453;48.162;14.510;2023-01-08T04:11:01;6.00;75.50
39777;DHT22;25453;48.162;14.510;2023-01-08T04:13:28;6.10;75.50
39777;DHT22;25453;48.162;14.510;2023-01-08T04:15:55;6.10;75.40
39777;DHT22;25453;48.162;14.510;2023-01-08T04:18:25;6.10;75.50
39777;DHT22;25453;48.162;14.510;2023-01-08T04:20:52;6.20;75.50
39777;DHT22;25453;48.162;14.510;2023-01-08T04:23:19;6.20;75.50
39777;DHT22;25453;48.162;14.510;2023-01-08T04:25:46;6.20;75.50
39777;DHT22;25453;48.162;14.510;2023-01-08T04:28:12;6.20;75.60
39777;DHT22;25453;48.162;14.510;2023-01-08T04:30:39;6.20;75.80
39777;DHT22;25453;48.162;14.510;2023-01-08T04:33:06;6.30;75.80
39777;DHT22;25453;48.162;14.510;2023-01-08T04:35:33;6.30;75.90
39777;DHT22;25453;48.162;14.510;2023-01-08T04:38:00;6.40;75.90
39777;DHT22;25453;48.162;14.510;2023-01-08T04:40:27;6.40;75.80
39777;DHT22;25453;48.162;14.510;2023-01-08T04:42:54;6.40;75.70
39777;DHT22;25453;48.162;14.510;2023-01-08T04:45:21;6.40;75.70
39777;DHT22;25453;48.162;14.510;2023-01-08T04:47:53;6.40;75.70
39777;DHT22;25453;48.162;14.510;2023-01-08T04:50:20;6.40;75.60
39777;DHT22;25453;48.162;14.510;2023-01-08T04:52:47;6.40;75.70
39777;DHT22;25453;48.162;14.510;2023-01-08T04:55:14;6.40;75.90
39777;DHT22;25453;48.162;14.510;2023-01-08T04:57:41;6.40;76.00
39777;DHT22;25453;48.162;14.510;2023-01-08T05:00:08;6.40;76.00
39777;DHT22;25453;48.162;14.510;2023-01-08T05:02:35;6.40;75.90
39777;DHT22;25453;48.162;14.510;2023-01-08T05:05:02;6.40;76.10
39777;DHT22;25453;48.162;14.510;2023-01-08T05:07:30;6.40;76.10
39777;DHT22;25453;48.162;14.510;2023-01-08T05:09:56;6.50;76.10
39777;DHT22;25453;48.162;14.510;2023-01-08T05:12:23;6.50;76.20
39777;DHT22;25453;48.162;14.510;2023-01-08T05:14:50;6.50;76.20
39777;DHT22;25453;48.162;14.510;2023-01-08T05:17:17;6.50;76.20
39777;DHT22;25453;48.162;14.510;2023-01-08T05:19:44;6.50;76.20
39777;DHT22;25453;48.162;14.510;2023-01-08T05:22:11;6.50;76.20
39777;DHT22;25453;48.162;14.510;2023-01-08T05:24:38;6.50;76.50
39777;DHT22;25453;48.162;14.510;2023-01-08T05:27:05;6.60;76.70
39777;DHT22;25453;48.162;14.510;2023-01-08T05:29:32;6.60;76.60
39777;DHT22;25453;48.162;14.510;2023-01-08T05:31:59;6.70;76.50
39777;DHT22;25453;48.162;14.510;2023-01-08T05:34:26;6.70;76.60
39777;DHT22;25453;48.162;14.510;2023-01-08T05:36:53;6.70;76.50
39777;DHT22;25453;48.162;14.510;2023-01-08T05:39:20;6.80;76.40
39777;DHT22;25453;48.162;14.510;2023-01-08T05:41:47;6.80;76.40
39777;DHT22;25453;48.162;14.510;2023-01-08T05:44:13;6.80;76.40
39777;DHT22;25453;48.162;14.510;2023-01-08T05:46:40;6.80;76.40
39777;DHT22;25453;48.162;14.510;2023-01-08T05:49:07;6.80;76.50
39777;DHT22;25453;48.162;14.510;2023-01-08T05:51:34;6.80;76.40
39777;DHT22;25453;48.162;14.510;2023-01-08T05:54:01;6.80;76.20
39777;DHT22;25453;48.162;14.510;2023-01-08T05:56:28;6.80;76.30
39777;DHT22;25453;48.162;14.510;2023-01-08T05:58:55;6.80;76.20
39777;DHT22;25453;48.162;14.510;2023-01-08T06:01:22;6.80;76.30
39777;DHT22;25453;48.162;14.510;2023-01-08T06:03:49;6.80;76.30
39777;DHT22;25453;48.162;14.510;2023-01-08T06:06:16;6.80;76.10
39777;DHT22;25453;48.162;14.510;2023-01-08T06:08:43;6.80;76.40
39777;DHT22;25453;48.162;14.510;2023-01-08T06:11:10;6.80;76.70
39777;DHT22;25453;48.162;14.510;2023-01-08T06:13:40;6.80;76.70
39777;DHT22;25453;48.162;14.510;2023-01-08T06:16:07;6.80;76.80
39777;DHT22;25453;48.162;14.510;2023-01-08T06:18:34;6.90;76.70
39777;DHT22;25453;48.162;14.510;2023-01-08T06:21:01;6.90;76.40
39777;DHT22;25453;48.162;14.510;2023-01-08T06:23:30;6.80;76.30
39777;DHT22;25453;48.162;14.510;2023-01-08T06:25:58;6.90;76.50
39777;DHT22;25453;48.162;14.510;2023-01-08T06:28:25;6.90;76.70
39777;DHT22;25453;48.162;14.510;2023-01-08T06:30:52;6.90;76.50
39777;DHT22;25453;48.162;14.510;2023-01-08T06:33:19;6.90;76.10
39777;DHT22;25453;48.162;14.510;2023-01-08T06:35:47;6.80;76.00
39777;DHT22;25453;48.162;14.510;2023-01-08T06:38:14;6.70;76.10
39777;DHT22;25453;48.162;14.510;2023-01-08T06:40:45;6.70;76.10
39777;DHT22;25453;48.162;14.510;2023-01-08T06:43:12;6.60;76.20
39777;DHT22;25453;48.162;14.510;2023-01-08T06:45:39;6.60;76.50
39777;DHT22;25453;48.162;14.510;2023-01-08T06:48:06;6.60;76.60
39777;DHT22;25453;48.162;14.510;2023-01-08T06:50:33;6.60;76.80
39777;DHT22;25453;48.162;14.510;2023-01-08T06:53:00;6.60;76.80
39777;DHT22;25453;48.162;14.510;2023-01-08T06:55:27;6.60;76.90
39777;DHT22;25453;48.162;14.510;2023-01-08T06:57:57;6.60;76.90
39777;DHT22;25453;48.162;14.510;2023-01-08T07:00:25;6.60;76.90
39777;DHT22;25453;48.162;14.510;2023-01-08T07:02:53;6.60;77.00
39777;DHT22;25453;48.162;14.510;2023-01-08T07:05:21;6.60;77.10
39777;DHT22;25453;48.162;14.510;2023-01-08T07:07:48;6.60;77.20
39777;DHT22;25453;48.162;14.510;2023-01-08T07:10:15;6.60;77.30
39777;DHT22;25453;48.162;14.510;2023-01-08T07:12:45;6.60;77.20
39777;DHT22;25453;48.162;14.510;2023-01-08T07:15:12;6.60;77.30
39777;DHT22;25453;48.162;14.510;2023-01-08T07:17:39;6.60;77.40
39777;DHT22;25453;48.162;14.510;2023-01-08T07:20:06;6.60;77.50
39777;DHT22;25453;48.162;14.510;2023-01-08T07:22:33;6.60;77.60
39777;DHT22;25453;48.162;14.510;2023-01-08T07:25:00;6.70;77.60
39777;DHT22;25453;48.162;14.510;2023-01-08T07:27:27;6.70;77.70
39777;DHT22;25453;48.162;14.510;2023-01-08T07:29:54;6.70;77.90
39777;DHT22;25453;48.162;14.510;2023-01-08T07:32:21;6.80;78.00
39777;DHT22;25453;48.162;14.510;2023-01-08T07:34:48;6.80;77.90
39777;DHT22;25453;48.162;14.510;2023-01-08T07:37:15;6.80;77.80
39777;DHT22;25453;48.162;14.510;2023-01-08T07:39:42;6.80;77.90
39777;DHT22;25453;48.162;14.510;2023-01-08T07:42:09;6.80;78.00
39777;DHT22;25453;48.162;14.510;2023-01-08T07:44:36;6.80;78.00
39777;DHT22;25453;48.162;14.510;2023-01-08T07:47:03;6.80;78.10
39777;DHT22;25453;48.162;14.510;2023-01-08T07:49:29;6.80;77.90
39777;DHT22;25453;48.162;14.510;2023-01-08T07:51:56;6.80;77.80
39777;DHT22;25453;48.162;14.510;2023-01-08T07:54:23;6.80;77.90
39777;DHT22;25453;48.162;14.510;2023-01-08T07:56:52;6.70;78.30
39777;DHT22;25453;48.162;14.510;2023-01-08T07:59:19;6.70;78.40
39777;DHT22;25453;48.162;14.510;2023-01-08T08:01:46;6.80;78.50
39777;DHT22;25453;48.162;14.510;2023-01-08T08:04:14;6.80;78.40
39777;DHT22;25453;48.162;14.510;2023-01-08T08:06:41;6.80;78.40
39777;DHT22;25453;48.162;14.510;2023-01-08T08:09:08;6.80;78.50
39777;DHT22;25453;48.162;14.510;2023-01-08T08:11:35;6.80;78.50
39777;DHT22;25453;48.162;14.510;2023-01-08T08:14:04;6.80;78.50
39777;DHT22;25453;48.162;14.510;2023-01-08T08:16:31;6.70;78.50
39777;DHT22;25453;48.162;14.510;2023-01-08T08:18:58;6.70;78.50
39777;DHT22;25453;48.162;14.510;2023-01-08T08:21:25;6.70;78.40
39777;DHT22;25453;48.162;14.510;2023-01-08T08:23:52;6.60;78.70
39777;DHT22;25453;48.162;14.510;2023-01-08T08:26:19;6.60;79.00
39777;DHT22;25453;48.162;14.510;2023-01-08T08:28:46;6.60;79.10
39777;DHT22;25453;48.162;14.510;2023-01-08T08:31:13;6.60;79.30
39777;DHT22;25453;48.162;14.510;2023-01-08T08:33:40;6.60;79.50
39777;DHT22;25453;48.162;14.510;2023-01-08T08:36:07;6.70;79.50
39777;DHT22;25453;48.162;14.510;2023-01-08T08:38:35;6.70;79.50
39777;DHT22;25453;48.162;14.510;2023-01-08T08:41:02;6.70;79.40
39777;DHT22;25453;48.162;14.510;2023-01-08T08:43:29;6.70;79.50
39777;DHT22;25453;48.162;14.510;2023-01-08T08:45:56;6.70;79.30
39777;DHT22;25453;48.162;14.510;2023-01-08T08:48:23;6.70;79.20
39777;DHT22;25453;48.162;14.510;2023-01-08T08:50:50;6.70;79.30
39777;DHT22;25453;48.162;14.510;2023-01-08T08:53:17;6.70;79.60
39777;DHT22;25453;48.162;14.510;2023-01-08T08:55:44;6.70;79.50
39777;DHT22;25453;48.162;14.510;2023-01-08T08:58:11;6.70;79.70
39777;DHT22;25453;48.162;14.510;2023-01-08T09:00:38;6.70;79.80
39777;DHT22;25453;48.162;14.510;2023-01-08T09:03:06;6.70;79.80
39777;DHT22;25453;48.162;14.510;2023-01-08T09:05:35;6.70;79.80
39777;DHT22;25453;48.162;14.510;2023-01-08T09:08:02;6.70;79.80
39777;DHT22;25453;48.162;14.510;2023-01-08T09:10:29;6.70;79.80
39777;DHT22;25453;48.162;14.510;2023-01-08T09:12:56;6.80;79.80
39777;DHT22;25453;48.162;14.510;2023-01-08T09:15:23;6.80;79.80
39777;DHT22;25453;48.162;14.510;2023-01-08T09:17:53;6.80;79.70
39777;DHT22;25453;48.162;14.510;2023-01-08T09:20:21;6.90;79.60
39777;DHT22;25453;48.162;14.510;2023-01-08T09:22:48;6.90;79.70
39777;DHT22;25453;48.162;14.510;2023-01-08T09:25:15;7.00;79.40
39777;DHT22;25453;48.162;14.510;2023-01-08T09:27:42;6.90;78.90
39777;DHT22;25453;48.162;14.510;2023-01-08T09:30:09;6.90;78.90
39777;DHT22;25453;48.162;14.510;2023-01-08T09:32:37;6.90;79.00
39777;DHT22;25453;48.162;14.510;2023-01-08T09:35:04;6.80;78.90
39777;DHT22;25453;48.162;14.510;2023-01-08T09:37:31;6.80;79.20
39777;DHT22;25453;48.162;14.510;2023-01-08T09:39:58;6.80;79.30
39777;DHT22;25453;48.162;14.510;2023-01-08T09:42:28;6.80;79.50
39777;DHT22;25453;48.162;14.510;2023-01-08T09:44:55;6.80;79.40
39777;DHT22;25453;48.162;14.510;2023-01-08T09:47:24;6.80;79.50
39777;DHT22;25453;48.162;14.510;2023-01-08T09:49:54;6.80;79.10
39777;DHT22;25453;48.162;14.510;2023-01-08T09:52:22;6.80;79.20
39777;DHT22;25453;48.162;14.510;2023-01-08T09:54:49;6.80;79.50
39777;DHT22;25453;48.162;14.510;2023-01-08T09:57:17;6.80;79.30
39777;DHT22;25453;48.162;14.510;2023-01-08T09:59:45;6.90;79.40
39777;DHT22;25453;48.162;14.510;2023-01-08T10:02:15;6.90;79.50
39777;DHT22;25453;48.162;14.510;2023-01-08T10:04:42;6.90;79.50
39777;DHT22;25453;48.162;14.510;2023-01-08T10:09:36;7.00;79.40
39777;DHT22;25453;48.162;14.510;2023-01-08T10:12:03;7.00;79.40
39777;DHT22;25453;48.162;14.510;2023-01-08T10:16:59;7.00;79.40
39777;DHT22;25453;48.162;14.510;2023-01-08T10:19:27;7.00;79.20
39777;DHT22;25453;48.162;14.510;2023-01-08T10:21:53;7.00;79.20
39777;DHT22;25453;48.162;14.510;2023-01-08T10:24:34;7.00;79.20
39777;DHT22;25453;48.162;14.510;2023-01-08T10:27:10;7.10;79.30
39777;DHT22;25453;48.162;14.510;2023-01-08T10:29:38;7.10;79.30
39777;DHT22;25453;48.162;14.510;2023-01-08T10:32:08;7.10;79.30
39777;DHT22;25453;48.162;14.510;2023-01-08T10:34:49;7.20;79.30
39777;DHT22;25453;48.162;14.510;2023-01-08T10:39:44;7.20;79.00
39777;DHT22;25453;48.162;14.510;2023-01-08T10:42:11;7.20;79.00
39777;DHT22;25453;48.162;14.510;2023-01-08T10:44:43;7.20;78.90
39777;DHT22;25453;48.162;14.510;2023-01-08T10:47:12;7.20;78.80
39777;DHT22;25453;48.162;14.510;2023-01-08T10:49:42;7.20;78.70
39777;DHT22;25453;48.162;14.510;2023-01-08T10:52:24;7.20;78.70
39777;DHT22;25453;48.162;14.510;2023-01-08T10:54:51;7.20;78.70
39777;DHT22;25453;48.162;14.510;2023-01-08T10:57:26;7.20;78.50
39777;DHT22;25453;48.162;14.510;2023-01-08T10:59:53;7.20;78.40
39777;DHT22;25453;48.162;14.510;2023-01-08T11:04:50;7.10;78.50
39777;DHT22;25453;48.162;14.510;2023-01-08T11:07:19;7.10;78.40
39777;DHT22;25453;48.162;14.510;2023-01-08T11:09:48;7.10;78.50
39777;DHT22;25453;48.162;14.510;2023-01-08T11:14:54;7.10;78.70
39777;DHT22;25453;48.162;14.510;2023-01-08T11:17:24;7.20;78.60
39777;DHT22;25453;48.162;14.510;2023-01-08T11:19:52;7.20;78.60
39777;DHT22;25453;48.162;14.510;2023-01-08T11:22:22;7.20;78.70
39777;DHT22;25453;48.162;14.510;2023-01-08T11:24:50;7.20;78.50
39777;DHT22;25453;48.162;14.510;2023-01-08T11:27:22;7.20;78.30
39777;DHT22;25453;48.162;14.510;2023-01-08T11:32:25;7.10;78.20
39777;DHT22;25453;48.162;14.510;2023-01-08T11:34:57;7.10;78.40
39777;DHT22;25453;48.162;14.510;2023-01-08T11:37:25;7.10;78.50
39777;DHT22;25453;48.162;14.510;2023-01-08T11:39:52;7.10;78.50
39777;DHT22;25453;48.162;14.510;2023-01-08T11:45:10;7.10;78.50
39777;DHT22;25453;48.162;14.510;2023-01-08T11:47:53;7.20;78.60
39777;DHT22;25453;48.162;14.510;2023-01-08T11:50:25;7.20;78.50
39777;DHT22;25453;48.162;14.510;2023-01-08T12:05:43;7.30;78.10
39777;DHT22;25453;48.162;14.510;2023-01-08T12:25:15;7.40;77.80
39777;DHT22;25453;48.162;14.510;2023-01-08T12:27:33;7.40;78.00
39777;DHT22;25453;48.162;14.510;2023-01-08T12:30:31;7.40;77.90
39777;DHT22;25453;48.162;14.510;2023-01-08T12:33:08;7.50;77.80
39777;DHT22;25453;48.162;14.510;2023-01-08T12:35:42;7.50;77.80
39777;DHT22;25453;48.162;14.510;2023-01-08T12:38:12;7.50;77.70
39777;DHT22;25453;48.162;14.510;2023-01-08T12:40:50;7.50;77.60
39777;DHT22;25453;48.162;14.510;2023-01-08T12:43:27;7.50;77.60
39777;DHT22;25453;48.162;14.510;2023-01-08T12:45:58;7.50;77.50
39777;DHT22;25453;48.162;14.510;2023-01-08T12:48:26;7.50;77.40
39777;DHT22;25453;48.162;14.510;2023-01-08T12:56:37;7.50;77.40
39777;DHT22;25453;48.162;14.510;2023-01-08T12:59:23;7.50;77.20
39777;DHT22;25453;48.162;14.510;2023-01-08T13:04:21;7.60;77.40
39777;DHT22;25453;48.162;14.510;2023-01-08T13:06:49;7.60;77.40
39777;DHT22;25453;48.162;14.510;2023-01-08T13:09:21;7.60;77.30
39777;DHT22;25453;48.162;14.510;2023-01-08T13:11:53;7.60;77.30
39777;DHT22;25453;48.162;14.510;2023-01-08T13:14:20;7.70;77.00
39777;DHT22;25453;48.162;14.510;2023-01-08T13:16:59;7.70;77.00
39777;DHT22;25453;48.162;14.510;2023-01-08T13:19:36;7.70;76.90
39777;DHT22;25453;48.162;14.510;2023-01-08T13:22:21;7.70;76.80
39777;DHT22;25453;48.162;14.510;2023-01-08T13:24:48;7.70;76.90
39777;DHT22;25453;48.162;14.510;2023-01-08T13:37:44;7.70;76.70
39777;DHT22;25453;48.162;14.510;2023-01-08T13:43:00;7.70;76.90
39777;DHT22;25453;48.162;14.510;2023-01-08T13:45:27;7.70;76.90
39777;DHT22;25453;48.162;14.510;2023-01-08T13:47:55;7.70;76.90
39777;DHT22;25453;48.162;14.510;2023-01-08T13:50:22;7.80;76.80
39777;DHT22;25453;48.162;14.510;2023-01-08T13:55:27;7.80;76.70
39777;DHT22;25453;48.162;14.510;2023-01-08T13:57:56;7.80;76.50
39777;DHT22;25453;48.162;14.510;2023-01-08T14:00:34;7.80;76.50
39777;DHT22;25453;48.162;14.510;2023-01-08T14:03:22;7.80;76.60
39777;DHT22;25453;48.162;14.510;2023-01-08T14:05:49;7.80;76.60
39777;DHT22;25453;48.162;14.510;2023-01-08T14:08:23;7.80;76.50
39777;DHT22;25453;48.162;14.510;2023-01-08T14:10:50;7.80;76.50
39777;DHT22;25453;48.162;14.510;2023-01-08T14:13:19;7.80;76.50
39777;DHT22;25453;48.162;14.510;2023-01-08T14:15:48;7.80;76.40
39777;DHT22;25453;48.162;14.510;2023-01-08T14:18:15;7.80;76.40
39777;DHT22;25453;48.162;14.510;2023-01-08T14:20:42;7.80;76.40
39777;DHT22;25453;48.162;14.510;2023-01-08T14:23:11;7.80;76.30
39777;DHT22;25453;48.162;14.510;2023-01-08T14:25:39;7.80;76.20
39777;DHT22;25453;48.162;14.510;2023-01-08T14:28:11;7.80;76.20
39777;DHT22;25453;48.162;14.510;2023-01-08T14:30:45;7.80;76.20
39777;DHT22;25453;48.162;14.510;2023-01-08T14:33:12;7.70;76.20
39777;DHT22;25453;48.162;14.510;2023-01-08T14:35:39;7.70;76.20
39777;DHT22;25453;48.162;14.510;2023-01-08T14:38:10;7.70;76.20
39777;DHT22;25453;48.162;14.510;2023-01-08T14:40:39;7.60;76.30
39777;DHT22;25453;48.162;14.510;2023-01-08T14:43:11;7.60;76.30
39777;DHT22;25453;48.162;14.510;2023-01-08T14:45:43;7.60;76.30
39777;DHT22;25453;48.162;14.510;2023-01-08T14:48:14;7.60;76.40
39777;DHT22;25453;48.162;14.510;2023-01-08T14:50:43;7.60;76.40
39777;DHT22;25453;48.162;14.510;2023-01-08T14:55:50;7.60;76.30
39777;DHT22;25453;48.162;14.510;2023-01-08T14:58:21;7.50;76.30
39777;DHT22;25453;48.162;14.510;2023-01-08T15:00:58;7.50;76.40
39777;DHT22;25453;48.162;14.510;2023-01-08T15:03:39;7.50;76.50
39777;DHT22;25453;48.162;14.510;2023-01-08T15:06:06;7.50;76.60
39777;DHT22;25453;48.162;14.510;2023-01-08T15:11:04;7.50;76.60
39777;DHT22;25453;48.162;14.510;2023-01-08T15:13:33;7.50;76.60
39777;DHT22;25453;48.162;14.510;2023-01-08T15:16:05;7.50;76.50
39777;DHT22;25453;48.162;14.510;2023-01-08T15:18:34;7.40;76.60
39777;DHT22;25453;48.162;14.510;2023-01-08T15:21:02;7.40;76.70
39777;DHT22;25453;48.162;14.510;2023-01-08T15:23:39;7.40;76.90
39777;DHT22;25453;48.162;14.510;2023-01-08T15:26:10;7.40;76.90
39777;DHT22;25453;48.162;14.510;2023-01-08T15:34:06;7.40;76.90
39777;DHT22;25453;48.162;14.510;2023-01-08T15:36:33;7.40;76.90
39777;DHT22;25453;48.162;14.510;2023-01-08T15:39:00;7.40;76.80
39777;DHT22;25453;48.162;14.510;2023-01-08T15:41:37;7.40;76.80
39777;DHT22;25453;48.162;14.510;2023-01-08T15:44:23;7.40;76.80
39777;DHT22;25453;48.162;14.510;2023-01-08T15:46:50;7.30;76.80
39777;DHT22;25453;48.162;14.510;2023-01-08T15:49:17;7.30;76.60
39777;DHT22;25453;48.162;14.510;2023-01-08T15:51:47;7.30;76.50
39777;DHT22;25453;48.162;14.510;2023-01-08T15:54:15;7.30;76.70
39777;DHT22;25453;48.162;14.510;2023-01-08T15:56:42;7.30;76.60
39777;DHT22;25453;48.162;14.510;2023-01-08T15:59:09;7.30;76.90
39777;DHT22;25453;48.162;14.510;2023-01-08T16:01:37;7.30;76.90
39777;DHT22;25453;48.162;14.510;2023-01-08T16:04:05;7.30;76.90
39777;DHT22;25453;48.162;14.510;2023-01-08T16:06:32;7.30;77.00
39777;DHT22;25453;48.162;14.510;2023-01-08T16:08:59;7.30;76.80
39777;DHT22;25453;48.162;14.510;2023-01-08T16:11:26;7.30;76.80
39777;DHT22;25453;48.162;14.510;2023-01-08T16:13:53;7.30;76.80
39777;DHT22;25453;48.162;14.510;2023-01-08T16:16:20;7.30;76.80
39777;DHT22;25453;48.162;14.510;2023-01-08T16:18:47;7.30;76.80
39777;DHT22;25453;48.162;14.510;2023-01-08T16:21:15;7.30;76.90
39777;DHT22;25453;48.162;14.510;2023-01-08T16:23:41;7.30;76.90
39777;DHT22;25453;48.162;14.510;2023-01-08T16:26:09;7.30;77.00
39777;DHT22;25453;48.162;14.510;2023-01-08T16:28:37;7.30;77.00
39777;DHT22;25453;48.162;14.510;2023-01-08T16:31:04;7.30;77.00
39777;DHT22;25453;48.162;14.510;2023-01-08T16:33:31;7.30;77.10
39777;DHT22;25453;48.162;14.510;2023-01-08T16:36:00;7.40;76.90
39777;DHT22;25453;48.162;14.510;2023-01-08T16:38:27;7.40;76.90
39777;DHT22;25453;48.162;14.510;2023-01-08T16:40:54;7.40;76.90
39777;DHT22;25453;48.162;14.510;2023-01-08T16:43:25;7.40;77.00
39777;DHT22;25453;48.162;14.510;2023-01-08T16:45:52;7.40;76.90
39777;DHT22;25453;48.162;14.510;2023-01-08T16:48:21;7.40;76.90
39777;DHT22;25453;48.162;14.510;2023-01-08T16:50:48;7.50;76.90
39777;DHT22;25453;48.162;14.510;2023-01-08T16:53:15;7.50;76.90
39777;DHT22;25453;48.162;14.510;2023-01-08T16:55:43;7.50;76.90
39777;DHT22;25453;48.162;14.510;2023-01-08T16:58:10;7.50;76.60
39777;DHT22;25453;48.162;14.510;2023-01-08T17:00:37;7.50;76.50
39777;DHT22;25453;48.162;14.510;2023-01-08T17:03:04;7.50;76.50
39777;DHT22;25453;48.162;14.510;2023-01-08T17:05:31;7.40;76.50
39777;DHT22;25453;48.162;14.510;2023-01-08T17:07:58;7.40;76.60
39777;DHT22;25453;48.162;14.510;2023-01-08T17:10:26;7.40;76.60
39777;DHT22;25453;48.162;14.510;2023-01-08T17:12:53;7.30;76.60
39777;DHT22;25453;48.162;14.510;2023-01-08T17:15:20;7.30;76.70
39777;DHT22;25453;48.162;14.510;2023-01-08T17:17:47;7.30;76.90
39777;DHT22;25453;48.162;14.510;2023-01-08T17:20:14;7.30;76.90